TimeEST,TemperatureF,Dew PointF,Humidity,Sea Level PressureIn,VisibilityMPH,Wind Direction,Wind SpeedMPH,Gust SpeedMPH,PrecipitationIn,Events,Conditions,WindDirDegrees,DateUTC
12:15 AM,42.8,41.0,93,29.98,7.0,NW,6.9,-,N/A,,Clear,320,2012-11-08 05:15:00
12:35 AM,42.8,41.0,93,29.98,7.0,NW,6.9,-,N/A,,Clear,320,2012-11-08 05:35:00
12:55 AM,42.8,41.0,93,29.98,7.0,NW,6.9,-,N/A,,Clear,320,2012-11-08 05:55:00
1:15 AM,42.8,41.0,93,29.99,6.0,NW,5.8,-,N/A,,Clear,320,2012-11-08 06:15:00
1:35 AM,42.8,41.0,93,29.99,5.0,NW,4.6,-,N/A,,Clear,320,2012-11-08 06:35:00
1:55 AM,42.8,41.0,93,29.98,5.0,NW,4.6,-,N/A,,Clear,320,2012-11-08 06:55:00
2:15 AM,42.8,41.0,93,29.98,5.0,NNW,5.8,-,N/A,,Clear,330,2012-11-08 07:15:00
2:35 AM,42.8,41.0,93,29.98,4.0,NW,4.6,-,N/A,,Clear,320,2012-11-08 07:35:00
2:55 AM,41.0,39.2,93,29.98,4.0,Calm,Calm,-,N/A,,Clear,0,2012-11-08 07:55:00
3:15 AM,39.2,39.2,100,29.99,3.0,NW,3.5,-,N/A,,Clear,320,2012-11-08 08:15:00
3:35 AM,41.0,41.0,100,29.99,4.0,NNW,3.5,-,N/A,,Clear,330,2012-11-08 08:35:00
3:55 AM,42.8,41.0,93,29.99,4.0,Calm,Calm,-,N/A,,Clear,0,2012-11-08 08:55:00
4:15 AM,39.2,39.2,100,29.99,3.0,Calm,Calm,-,N/A,,Clear,0,2012-11-08 09:15:00
4:35 AM,39.2,39.2,100,30.00,3.0,Calm,Calm,-,N/A,,Clear,0,2012-11-08 09:35:00
4:55 AM,39.2,39.2,100,30.00,2.0,Calm,Calm,-,N/A,,Clear,0,2012-11-08 09:55:00
5:15 AM,41.0,41.0,100,30.01,3.0,WNW,3.5,-,N/A,,Clear,300,2012-11-08 10:15:00
5:35 AM,39.2,39.2,100,30.02,2.5,NW,3.5,-,N/A,,Clear,310,2012-11-08 10:35:00
5:55 AM,41.0,41.0,100,30.03,3.0,NW,3.5,-,N/A,,Clear,320,2012-11-08 10:55:00
6:15 AM,41.0,39.2,93,30.03,3.0,WNW,3.5,-,N/A,,Clear,290,2012-11-08 11:15:00
6:35 AM,39.2,39.2,100,30.04,2.5,Calm,Calm,-,N/A,,Clear,0,2012-11-08 11:35:00
6:55 AM,39.2,39.2,100,30.05,1.8,NW,3.5,-,N/A,,Clear,310,2012-11-08 11:55:00
7:15 AM,39.2,39.2,100,30.05,1.8,Calm,Calm,-,N/A,,Clear,0,2012-11-08 12:15:00
7:35 AM,39.2,39.2,100,30.07,1.8,NW,3.5,-,N/A,,Clear,310,2012-11-08 12:35:00
7:55 AM,42.8,42.8,100,30.07,2.0,NW,3.5,-,N/A,,Clear,320,2012-11-08 12:55:00
8:15 AM,42.8,42.8,100,30.08,2.5,NNW,4.6,-,N/A,,Clear,330,2012-11-08 13:15:00
8:35 AM,44.6,42.8,93,30.09,3.0,NNW,5.8,-,N/A,,Clear,330,2012-11-08 13:35:00
8:55 AM,46.4,42.8,87,30.10,5.0,NNW,6.9,-,N/A,,Clear,330,2012-11-08 13:55:00
9:15 AM,46.4,42.8,87,30.10,5.0,North,8.1,-,N/A,,Haze,350,2012-11-08 14:15:00
9:35 AM,48.2,42.8,82,30.11,5.0,NW,6.9,-,N/A,,Haze,320,2012-11-08 14:35:00
9:55 AM,51.8,44.6,76,30.11,7.0,NW,8.1,-,N/A,,Clear,320,2012-11-08 14:55:00
10:15 AM,53.6,44.6,72,30.11,8.0,NNW,6.9,-,N/A,,Clear,330,2012-11-08 15:15:00
10:35 AM,55.4,42.8,63,30.11,9.0,North,5.8,-,N/A,,Clear,350,2012-11-08 15:35:00
10:55 AM,57.2,41.0,55,30.11,10.0,NNW,6.9,-,N/A,,Clear,340,2012-11-08 15:55:00
11:15 AM,57.2,41.0,55,30.11,10.0,NNW,9.2,17.3,N/A,,Clear,330,2012-11-08 16:15:00
11:35 AM,59.0,41.0,51,30.10,10.0,NNW,10.4,18.4,N/A,,Clear,330,2012-11-08 16:35:00
11:55 AM,60.8,39.2,45,30.09,10.0,NW,15.0,-,N/A,,Clear,320,2012-11-08 16:55:00
12:15 PM,60.8,35.6,39,30.08,10.0,NNW,10.4,18.4,N/A,,Clear,330,2012-11-08 17:15:00
12:35 PM,60.8,35.6,39,30.07,10.0,NNW,5.8,-,N/A,,Clear,330,2012-11-08 17:35:00
12:55 PM,62.6,33.8,34,30.07,10.0,NW,12.7,-,N/A,,Clear,310,2012-11-08 17:55:00
1:15 PM,62.6,33.8,34,30.06,10.0,NNW,9.2,16.1,N/A,,Clear,330,2012-11-08 18:15:00
1:35 PM,62.6,35.6,37,30.06,10.0,NW,6.9,-,N/A,,Clear,320,2012-11-08 18:35:00
1:55 PM,62.6,35.6,37,30.06,10.0,NNW,11.5,-,N/A,,Clear,330,2012-11-08 18:55:00
2:15 PM,62.6,33.8,34,30.05,10.0,NW,6.9,-,N/A,,Clear,320,2012-11-08 19:15:00
2:35 PM,64.4,32.0,30,30.05,10.0,NW,10.4,-,N/A,,Clear,320,2012-11-08 19:35:00
2:55 PM,64.4,33.8,32,30.05,10.0,NNW,9.2,-,N/A,,Clear,340,2012-11-08 19:55:00
3:15 PM,64.4,33.8,32,30.05,10.0,North,6.9,-,N/A,,Clear,350,2012-11-08 20:15:00
3:35 PM,64.4,32.0,30,30.06,10.0,NW,11.5,-,N/A,,Clear,310,2012-11-08 20:35:00
3:55 PM,64.4,32.0,30,30.06,10.0,NNW,8.1,-,N/A,,Clear,340,2012-11-08 20:55:00
4:15 PM,62.6,32.0,32,30.07,10.0,North,4.6,-,N/A,,Clear,350,2012-11-08 21:15:00
4:35 PM,62.6,32.0,32,30.07,10.0,NNW,3.5,-,N/A,,Clear,330,2012-11-08 21:35:00
5:15 PM,55.4,37.4,51,30.08,10.0,Calm,Calm,-,N/A,,Clear,0,2012-11-08 22:15:00
5:35 PM,51.8,39.2,62,30.08,10.0,Calm,Calm,-,N/A,,Clear,0,2012-11-08 22:35:00
5:55 PM,48.2,39.2,71,30.09,10.0,Calm,Calm,-,N/A,,Clear,0,2012-11-08 22:55:00
6:15 PM,46.4,39.2,76,30.10,10.0,Calm,Calm,-,N/A,,Clear,0,2012-11-08 23:15:00
6:35 PM,46.4,39.2,76,30.11,10.0,Calm,Calm,-,N/A,,Clear,0,2012-11-08 23:35:00
7:15 PM,44.6,39.2,81,30.12,10.0,Calm,Calm,-,N/A,,Clear,0,2012-11-09 00:15:00
7:35 PM,42.8,39.2,87,30.12,10.0,SW,3.5,-,N/A,,Clear,220,2012-11-09 00:35:00
7:55 PM,42.8,39.2,87,30.12,10.0,Calm,Calm,-,N/A,,Clear,0,2012-11-09 00:55:00
8:15 PM,42.8,39.2,87,30.12,10.0,Calm,Calm,-,N/A,,Clear,0,2012-11-09 01:15:00
8:35 PM,42.8,39.2,87,30.12,10.0,Calm,Calm,-,N/A,,Clear,0,2012-11-09 01:35:00
8:55 PM,42.8,39.2,87,30.13,10.0,Calm,Calm,-,N/A,,Clear,0,2012-11-09 01:55:00
9:35 PM,41.0,37.4,87,30.14,10.0,Calm,Calm,-,N/A,,Clear,0,2012-11-09 02:35:00
9:55 PM,39.2,37.4,93,30.14,10.0,Calm,Calm,-,N/A,,Clear,0,2012-11-09 02:55:00
10:15 PM,39.2,37.4,93,30.14,10.0,Calm,Calm,-,N/A,,Clear,0,2012-11-09 03:15:00
10:35 PM,39.2,37.4,93,30.14,10.0,Calm,Calm,-,N/A,,Clear,0,2012-11-09 03:35:00
11:15 PM,39.2,37.4,93,30.14,10.0,Calm,Calm,-,N/A,,Clear,0,2012-11-09 04:15:00
11:35 PM,39.2,37.4,93,30.14,10.0,Calm,Calm,-,N/A,,Clear,0,2012-11-09 04:35:00
11:55 PM,39.2,37.4,93,30.14,10.0,Calm,Calm,-,N/A,,Clear,0,2012-11-09 04:55:00